METAR UND TAF INFORMATION
LUKK 241100Z 01007KT 340V050 9999 FEW048 30/21 Q1015 R08/CLRD//

 FLUGHAFENKARTE

 RUNWAY INFORMATION
Runway 08 Runway length 11779 ft Runway width 145 ft
Runway elevation 399 ft Runway displaced threshold 0 ft Runway heading 88
Runway 26 Runway length 11779 ft Runway width 145 ft
Runway elevation 279 ft Runway displaced threshold 0 ft Runway heading 268

 AIRPORT FREQUENCIES
Type APP Name APP Frequency 125.9 MHZ
Type ATIS Name ATIS Frequency 133.7 MHZ
Type GND Name GND Frequency 121.8 MHZ
Type TWR Name TWR Frequency 118.1 MHZ

 AIRPORT NEAR NAVIGATION AIDS
Type VOR-DME Name Chisinau Frequency 113700 KHZ